Strona główna
METAR-TAF:

METAR-TAF

Lotnisko :

Wittmund, Niemcy

Szerokość geograficzna: 53-33N, Długość geograficzna: 007-40E, wysokość: 8 m

Aktualna obserwacja pogody

Raport powstał 28 minut temu, godzina 20:20 UTC
Wiatr 7 kt od zachodnio-północny zachód
Temperatura 14°C
Wilgotność 77%
Ciśnienie 1018 hPa
Widzialność 10 km lub więcej
Przerywane chmury na wysokości 1500 ft

METAR: ETNT 152020Z 30007KT 9999 BKN015 14/10 Q1018 WHT

czas: 22:48 (20:48 UTC)

Prognoza

Raport powstał 1 godzina i 38 minut temu, godzina 19:10 UTC
Prognoza ważna od 15 godzina 20 UTC do 16 godzina 05 UTC
Wiatr 10 kt od zachodnio-północny zachód
Widzialność 10 km lub więcej
Przerywane chmury na wysokości 1500 ft
Przejściowo
od 15 godzina 20 UTC do 16 godzina 05 UTC
Wiatr 8 kt od północny zachód
Widzialność: 8000 m
Przerywane chmury na wysokości 1200 ft

TAF: ETNT 151910Z 1520/1605 29010KT 9999 NSW BKN015 TEMPO 1520/1605 32008KT 8000 NSW BKN012 BY ETGL

Obserwacja i prognoza pogody dla ponad 4000 lotnisk (raport METAR i TAF).

Dostępne stacje oznaczono żółtymi i czerwonymi punktami na mapie.

Najedź kursorem aby zobaczyć nazwę stacji.

Kliknij aby zobaczyć obserwacje i prognozy pogody.

Aby zmienić mapę: kliknij na zielony przycisk z czarnym krzyżykiem, aby powiększyć; na zielony przycisk z myślnikiem, aby pomniejszyć; na zielone strzałki, aby przejść do map sąsiednich.


METAR-TAF: